createdAt,value
2017-12-13T00:01:08.667Z,15.90
2017-12-13T00:03:35.795Z,15.85
2017-12-13T00:06:02.944Z,16.00
2017-12-13T00:08:30.093Z,14.52
2017-12-13T00:10:56.964Z,16.40
2017-12-13T00:13:24.080Z,14.98
2017-12-13T00:15:50.952Z,15.88
2017-12-13T00:18:18.036Z,16.10
2017-12-13T00:20:44.867Z,16.02
2017-12-13T00:23:11.715Z,14.73
2017-12-13T00:25:38.814Z,15.57
2017-12-13T00:28:05.691Z,14.70
2017-12-13T00:30:32.565Z,15.67
2017-12-13T00:32:59.407Z,14.40
2017-12-13T00:35:26.270Z,14.43
2017-12-13T00:37:53.355Z,14.25
2017-12-13T00:40:20.213Z,15.00
2017-12-13T00:42:47.055Z,14.20
2017-12-13T00:45:14.177Z,13.73
2017-12-13T00:47:41.036Z,13.40
2017-12-13T00:50:07.867Z,14.38
2017-12-13T00:52:35.008Z,14.35
2017-12-13T00:55:01.836Z,14.20
2017-12-13T00:57:28.995Z,14.10
2017-12-13T00:59:56.150Z,14.55
2017-12-13T01:02:23.001Z,13.70
2017-12-13T01:04:49.837Z,13.40
2017-12-13T01:07:16.988Z,13.77
2017-12-13T01:09:43.863Z,14.27
2017-12-13T01:12:10.980Z,13.50
2017-12-13T01:14:37.883Z,14.35
2017-12-13T01:17:04.698Z,14.80
2017-12-13T01:19:31.582Z,13.80
2017-12-13T01:21:58.764Z,14.45
2017-12-13T01:24:25.610Z,14.60
2017-12-13T01:26:52.463Z,13.02
2017-12-13T01:29:19.347Z,13.05
2017-12-13T01:31:46.167Z,12.80
2017-12-13T01:34:13.015Z,14.13
2017-12-13T01:36:39.867Z,14.50
2017-12-13T01:39:06.683Z,15.60
2017-12-13T01:41:33.515Z,15.43
2017-12-13T01:44:00.661Z,15.95
2017-12-13T01:46:27.487Z,16.30
2017-12-13T01:48:54.368Z,15.20
2017-12-13T01:51:21.231Z,16.45
2017-12-13T01:53:48.083Z,15.68
2017-12-13T01:56:14.987Z,15.50
2017-12-13T01:58:41.848Z,15.50
2017-12-13T02:01:08.699Z,15.10
2017-12-13T02:03:35.816Z,15.50
2017-12-13T02:06:02.757Z,14.75
2017-12-13T02:08:29.912Z,14.80
2017-12-13T02:10:56.812Z,14.60
2017-12-13T02:13:23.708Z,14.90
2017-12-13T02:15:50.565Z,14.90
2017-12-13T02:18:17.691Z,14.20
2017-12-13T02:20:44.601Z,13.30
2017-12-13T02:23:11.487Z,14.55
2017-12-13T02:25:38.737Z,13.55
2017-12-13T02:28:05.595Z,14.98
2017-12-13T02:30:32.452Z,14.25
2017-12-13T02:32:59.567Z,13.00
2017-12-13T02:35:26.471Z,12.93
2017-12-13T02:37:53.295Z,13.25
2017-12-13T02:40:38.228Z,13.30
2017-12-13T02:43:05.081Z,12.90
2017-12-13T02:45:31.941Z,12.43
2017-12-13T02:47:58.809Z,13.62
2017-12-13T02:50:25.903Z,12.60
2017-12-13T02:52:53.251Z,12.47
2017-12-13T02:55:20.413Z,12.82
2017-12-13T02:57:47.558Z,13.62
2017-12-13T03:00:14.436Z,12.90
2017-12-13T03:02:41.328Z,13.70
2017-12-13T03:05:08.181Z,12.77
2017-12-13T03:07:35.020Z,11.20
2017-12-13T03:10:01.921Z,11.27
2017-12-13T03:12:29.027Z,11.73
2017-12-13T03:14:55.871Z,12.00
2017-12-13T03:17:23.028Z,12.10
2017-12-13T03:19:50.176Z,12.68
2017-12-13T03:22:17.328Z,13.98
2017-12-13T03:24:44.179Z,14.07
2017-12-13T03:27:11.015Z,13.40
2017-12-13T03:29:37.880Z,12.48
2017-12-13T03:32:05.103Z,12.98
2017-12-13T03:34:31.950Z,12.37
2017-12-13T03:36:58.762Z,11.52
2017-12-13T03:39:25.945Z,12.48
2017-12-13T03:41:53.093Z,12.60
2017-12-13T03:44:20.254Z,13.05
2017-12-13T03:46:47.136Z,13.70
2017-12-13T03:49:14.009Z,12.80
2017-12-13T03:51:40.870Z,11.80
2017-12-13T03:54:08.024Z,12.50
2017-12-13T03:56:34.851Z,11.88
2017-12-13T03:59:01.918Z,11.80
2017-12-13T04:01:28.830Z,12.20
2017-12-13T04:03:55.906Z,12.18
2017-12-13T04:06:22.786Z,12.00
2017-12-13T04:08:49.899Z,13.02
2017-12-13T04:11:16.731Z,12.85
2017-12-13T04:13:43.588Z,12.02
2017-12-13T04:16:10.786Z,13.62
2017-12-13T04:18:37.632Z,12.53
2017-12-13T04:21:04.521Z,13.40
2017-12-13T04:23:31.392Z,12.17
2017-12-13T04:25:58.245Z,12.53
2017-12-13T04:28:25.092Z,12.97
2017-12-13T04:30:51.932Z,13.47
2017-12-13T04:33:18.772Z,13.67
2017-12-13T04:35:45.592Z,13.15
2017-12-13T04:38:12.454Z,14.80
2017-12-13T04:40:39.580Z,15.18
2017-12-13T04:43:06.428Z,14.40
2017-12-13T04:45:33.570Z,15.75
2017-12-13T04:48:00.730Z,16.52
2017-12-13T04:50:27.547Z,16.65
2017-12-13T04:52:54.721Z,17.10
2017-12-13T04:55:21.581Z,17.77
2017-12-13T04:57:48.712Z,18.40
2017-12-13T05:00:15.555Z,18.45
2017-12-13T05:02:42.406Z,18.00
2017-12-13T05:05:09.554Z,17.90
2017-12-13T05:07:36.481Z,18.58
2017-12-13T05:10:03.325Z,18.30
2017-12-13T05:12:30.224Z,17.77
2017-12-13T05:14:57.327Z,18.02
2017-12-13T05:17:24.154Z,19.27
2017-12-13T05:19:51.328Z,18.42
2017-12-13T05:22:18.183Z,18.53
2017-12-13T05:24:45.037Z,18.77
2017-12-13T05:27:11.869Z,18.17
2017-12-13T05:29:38.780Z,18.30
2017-12-13T05:32:05.673Z,18.63
2017-12-13T05:34:32.540Z,19.50
2017-12-13T05:36:59.382Z,18.17
2017-12-13T05:39:26.579Z,19.30
2017-12-13T05:41:53.732Z,18.70
2017-12-13T05:44:20.617Z,18.08
2017-12-13T05:46:47.472Z,17.77
2017-12-13T05:49:14.316Z,18.05
2017-12-13T05:51:41.224Z,17.23
2017-12-13T05:54:08.124Z,17.42
2017-12-13T05:56:34.959Z,17.00
2017-12-13T05:59:02.039Z,17.25
2017-12-13T06:01:28.880Z,16.70
2017-12-13T06:03:56.042Z,16.17
2017-12-13T06:06:23.188Z,15.10
2017-12-13T06:08:50.334Z,16.40
2017-12-13T06:11:17.164Z,15.48
2017-12-13T06:13:44.041Z,15.57
2017-12-13T06:16:10.905Z,15.02
2017-12-13T06:18:38.014Z,14.70
2017-12-13T06:21:05.168Z,15.50
2017-12-13T06:23:31.995Z,14.80
2017-12-13T06:25:59.187Z,13.87
2017-12-13T06:28:26.312Z,14.32
2017-12-13T06:30:53.180Z,14.57
2017-12-13T06:33:20.017Z,14.20
2017-12-13T06:35:46.964Z,14.43
2017-12-13T06:38:14.097Z,14.48
2017-12-13T06:40:40.944Z,13.95
2017-12-13T06:43:08.019Z,14.02
2017-12-13T06:45:35.136Z,13.50
2017-12-13T06:48:01.959Z,14.45
2017-12-13T06:50:28.854Z,13.90
2017-12-13T06:52:55.681Z,14.13
2017-12-13T06:55:22.560Z,13.80
2017-12-13T06:57:49.436Z,13.90
2017-12-13T07:00:16.282Z,14.73
2017-12-13T07:02:43.448Z,14.00
2017-12-13T07:05:10.304Z,13.82
2017-12-13T07:07:37.439Z,13.48
2017-12-13T07:10:04.600Z,13.20
2017-12-13T07:12:31.451Z,13.60
2017-12-13T07:14:58.284Z,12.95
2017-12-13T07:17:25.433Z,13.23
2017-12-13T07:19:52.298Z,13.70
2017-12-13T07:22:19.163Z,13.18
2017-12-13T07:24:45.992Z,13.77
2017-12-13T07:27:13.212Z,13.55
2017-12-13T07:29:40.081Z,12.95
2017-12-13T07:32:06.924Z,13.25
2017-12-13T07:34:34.153Z,12.45
2017-12-13T07:37:00.994Z,12.37
2017-12-13T07:39:28.143Z,11.43
2017-12-13T07:41:55.069Z,12.30
2017-12-13T07:44:22.236Z,11.38
2017-12-13T07:46:49.080Z,11.75
2017-12-13T07:49:15.994Z,11.43
2017-12-13T07:51:43.180Z,10.95
2017-12-13T07:54:10.328Z,10.77
2017-12-13T07:56:37.208Z,9.95
2017-12-13T07:59:04.329Z,10.23
2017-12-13T08:01:31.205Z,10.50
2017-12-13T08:03:58.088Z,9.55
2017-12-13T08:06:24.929Z,9.00
2017-12-13T08:08:51.804Z,8.52
2017-12-13T08:11:19.054Z,9.00
2017-12-13T08:13:45.924Z,8.30
2017-12-13T08:16:12.792Z,8.68
2017-12-13T08:18:39.672Z,8.20
2017-12-13T08:21:06.839Z,8.80
2017-12-13T08:23:33.980Z,8.50
2017-12-13T08:26:01.129Z,8.70
2017-12-13T08:28:27.959Z,8.48
2017-12-13T08:30:55.035Z,9.07
2017-12-13T08:33:21.888Z,8.60
2017-12-13T08:35:48.756Z,8.90
2017-12-13T08:38:15.601Z,8.30
2017-12-13T08:40:42.809Z,8.20
2017-12-13T08:43:09.643Z,7.70
2017-12-13T08:45:36.509Z,8.00
2017-12-13T08:48:03.744Z,7.10
2017-12-13T08:50:30.897Z,7.22
2017-12-13T08:52:57.771Z,7.32
2017-12-13T08:55:24.640Z,7.05
2017-12-13T08:57:51.840Z,7.12
2017-12-13T09:00:18.708Z,7.00
2017-12-13T09:02:45.644Z,6.50
2017-12-13T09:05:12.504Z,6.05
2017-12-13T09:07:39.369Z,6.03
2017-12-13T09:10:06.891Z,6.00
2017-12-13T09:12:33.765Z,5.82
2017-12-13T09:15:00.589Z,6.25
2017-12-13T09:17:27.468Z,6.30
2017-12-13T09:19:54.653Z,5.90
2017-12-13T09:22:21.695Z,5.30
2017-12-13T09:24:48.561Z,5.37
2017-12-13T09:27:15.417Z,5.60
2017-12-13T09:29:42.279Z,5.00
2017-12-13T09:32:09.131Z,5.10
2017-12-13T09:34:35.977Z,4.90
2017-12-13T09:37:03.094Z,4.95
2017-12-13T09:39:30.221Z,4.93
2017-12-13T09:41:57.115Z,5.00
2017-12-13T09:44:23.985Z,4.70
2017-12-13T09:46:50.864Z,4.60
2017-12-13T09:49:17.696Z,4.90
2017-12-13T09:51:44.754Z,4.60
2017-12-13T09:54:11.883Z,4.78
2017-12-13T09:56:38.744Z,4.53
2017-12-13T09:59:05.879Z,4.82
2017-12-13T10:01:32.793Z,4.45
2017-12-13T10:03:59.680Z,4.22
2017-12-13T10:06:26.503Z,4.12
2017-12-13T10:08:53.331Z,4.50
2017-12-13T10:11:20.511Z,4.62
2017-12-13T10:13:47.657Z,4.20
2017-12-13T10:16:14.807Z,4.72
2017-12-13T10:18:41.960Z,4.10
2017-12-13T10:21:08.824Z,4.50
2017-12-13T10:23:35.950Z,4.15
2017-12-13T10:26:03.104Z,4.30
2017-12-13T10:28:29.965Z,4.10
2017-12-13T10:30:56.795Z,4.07
2017-12-13T10:33:23.936Z,4.55
2017-12-13T10:35:50.795Z,4.18
2017-12-13T10:38:17.672Z,3.90
2017-12-13T10:40:44.771Z,3.90
2017-12-13T10:43:11.934Z,4.10
2017-12-13T10:45:38.784Z,3.70
2017-12-13T10:48:05.610Z,4.20
2017-12-13T10:50:32.473Z,3.70
2017-12-13T10:52:59.546Z,3.65
2017-12-13T10:55:26.650Z,4.00
2017-12-13T10:57:53.509Z,3.80
2017-12-13T11:00:20.652Z,3.62
2017-12-13T11:02:47.802Z,3.37
2017-12-13T11:05:14.710Z,3.72
2017-12-13T11:07:41.891Z,4.20
2017-12-13T11:10:09.048Z,3.70
2017-12-13T11:12:35.858Z,3.60
2017-12-13T11:15:02.699Z,3.60
2017-12-13T11:17:29.568Z,3.50
2017-12-13T11:19:56.723Z,3.50
2017-12-13T11:22:23.572Z,4.00
2017-12-13T11:24:50.400Z,3.60
2017-12-13T11:27:17.220Z,3.42
2017-12-13T11:29:44.362Z,3.40
2017-12-13T11:32:11.448Z,3.70
2017-12-13T11:34:38.279Z,3.40
2017-12-13T11:37:11.151Z,3.20
2017-12-13T11:39:38.060Z,3.40
2017-12-13T11:42:04.895Z,3.45
2017-12-13T11:44:31.837Z,3.40
2017-12-13T11:46:58.700Z,3.13
2017-12-13T11:49:25.569Z,3.47
2017-12-13T11:51:52.751Z,3.40
2017-12-13T11:54:19.606Z,3.57
2017-12-13T11:56:46.738Z,3.03
2017-12-13T11:59:13.605Z,3.20
2017-12-13T12:01:40.423Z,3.20
2017-12-13T12:04:07.585Z,3.30
2017-12-13T12:06:34.739Z,2.90
2017-12-13T12:09:01.906Z,2.85
2017-12-13T12:11:29.028Z,2.80
2017-12-13T12:13:55.906Z,3.00
2017-12-13T12:16:22.784Z,3.00
2017-12-13T12:18:49.603Z,3.00
2017-12-13T12:21:16.521Z,3.10
2017-12-13T12:23:43.762Z,3.00
2017-12-13T12:26:10.605Z,2.90
2017-12-13T12:28:37.499Z,2.85
2017-12-13T12:31:04.370Z,2.90
2017-12-13T12:33:31.237Z,2.75
2017-12-13T12:35:58.342Z,3.10
2017-12-13T12:38:25.173Z,2.83
2017-12-13T12:40:52.281Z,3.00
2017-12-13T12:43:19.423Z,3.10
2017-12-13T12:45:46.245Z,3.30
2017-12-13T12:48:13.062Z,3.20
2017-12-13T12:50:39.895Z,2.95
2017-12-13T12:53:06.999Z,2.70
2017-12-13T12:55:34.052Z,2.95
2017-12-13T12:58:01.209Z,2.97
2017-12-13T13:00:28.053Z,2.72
2017-12-13T13:02:54.924Z,2.80
2017-12-13T13:05:22.044Z,2.80
2017-12-13T13:07:48.879Z,2.90
2017-12-13T13:10:15.740Z,2.80
2017-12-13T13:12:42.607Z,2.70
2017-12-13T13:15:09.465Z,2.87
2017-12-13T13:17:36.345Z,2.70
2017-12-13T13:20:03.518Z,2.70
2017-12-13T13:22:30.418Z,2.70
2017-12-13T13:24:57.311Z,2.80
2017-12-13T13:27:24.449Z,2.70
2017-12-13T13:29:51.344Z,2.70
2017-12-13T13:32:18.188Z,2.70
2017-12-13T13:34:45.046Z,2.70
2017-12-13T13:37:12.410Z,2.78
2017-12-13T13:39:39.337Z,2.70
2017-12-13T13:42:06.213Z,2.33
2017-12-13T13:44:34.187Z,2.60
2017-12-13T13:47:00.996Z,2.50
2017-12-13T13:49:27.832Z,2.47
2017-12-13T13:51:54.689Z,2.60
2017-12-13T13:54:21.569Z,2.10
2017-12-13T13:56:48.411Z,2.60
2017-12-13T13:59:15.240Z,2.50
2017-12-13T14:01:42.057Z,2.90
2017-12-13T14:04:09.245Z,2.97
2017-12-13T14:06:36.092Z,2.83
2017-12-13T14:09:02.969Z,2.60
2017-12-13T14:11:29.903Z,2.90
2017-12-13T14:13:57.032Z,2.80
2017-12-13T14:16:24.175Z,3.20
2017-12-13T14:18:51.052Z,3.13
2017-12-13T14:21:18.168Z,2.80
2017-12-13T14:23:45.322Z,3.58
2017-12-13T14:26:12.469Z,3.65
2017-12-13T14:28:39.623Z,3.20
2017-12-13T14:31:06.764Z,3.37
2017-12-13T14:33:33.637Z,3.65
2017-12-13T14:36:00.463Z,3.40
2017-12-13T14:38:27.270Z,3.25
2017-12-13T14:40:54.455Z,3.60
2017-12-13T14:43:21.602Z,3.87
2017-12-13T14:45:48.418Z,3.25
2017-12-13T14:48:15.591Z,3.00
2017-12-13T14:50:42.409Z,3.60
2017-12-13T14:53:09.239Z,3.50
2017-12-13T14:55:36.434Z,3.70
2017-12-13T14:58:03.585Z,3.90
2017-12-13T15:00:30.740Z,3.78
2017-12-13T15:02:57.625Z,3.90
2017-12-13T15:05:24.498Z,3.70
2017-12-13T15:07:51.388Z,3.70
2017-12-13T15:10:18.247Z,4.43
2017-12-13T15:12:45.108Z,3.55
2017-12-13T15:15:12.195Z,3.75
2017-12-13T15:17:39.068Z,4.20
2017-12-13T15:20:05.888Z,3.90
2017-12-13T15:22:32.740Z,4.30
2017-12-13T15:24:59.615Z,3.90
2017-12-13T15:27:26.439Z,4.28
2017-12-13T15:29:53.564Z,4.10
2017-12-13T15:32:20.716Z,4.60
2017-12-13T15:34:47.593Z,4.10
2017-12-13T15:37:14.713Z,4.15
2017-12-13T15:39:41.865Z,4.50
2017-12-13T15:42:08.723Z,5.12
2017-12-13T15:44:35.851Z,4.87
2017-12-13T15:47:03.003Z,4.57
2017-12-13T15:49:29.823Z,5.20
2017-12-13T15:51:56.677Z,4.50
2017-12-13T15:54:23.558Z,5.90
2017-12-13T15:56:50.684Z,5.70
2017-12-13T15:59:17.552Z,5.80
2017-12-13T16:01:44.489Z,5.72
2017-12-13T16:04:11.626Z,5.93
2017-12-13T16:06:38.488Z,5.90
2017-12-13T16:09:05.625Z,6.20
2017-12-13T16:11:32.464Z,9.88
2017-12-13T16:13:59.308Z,6.45
2017-12-13T16:16:26.140Z,6.60
2017-12-13T16:18:52.993Z,6.65
2017-12-13T16:21:19.844Z,5.97
2017-12-13T16:23:48.461Z,6.97
2017-12-13T16:26:15.844Z,6.60
2017-12-13T16:28:43.815Z,6.20
2017-12-13T16:31:11.000Z,6.97
2017-12-13T16:33:37.857Z,7.03
2017-12-13T16:36:04.709Z,6.90
2017-12-13T16:38:31.834Z,6.47
2017-12-13T16:40:58.699Z,6.75
2017-12-13T16:43:25.536Z,7.22
2017-12-13T16:45:52.535Z,6.95
2017-12-13T16:48:19.344Z,6.85
2017-12-13T16:50:46.226Z,6.50
2017-12-13T16:53:13.489Z,7.00
2017-12-13T16:55:40.373Z,6.20
2017-12-13T16:58:07.508Z,7.00
2017-12-13T17:00:34.343Z,6.75
2017-12-13T17:03:01.494Z,7.30
2017-12-13T17:05:28.375Z,7.53
2017-12-13T17:07:55.265Z,6.65
2017-12-13T17:10:22.434Z,7.15
2017-12-13T17:12:49.291Z,6.50
2017-12-13T17:15:16.185Z,5.83
2017-12-13T17:17:43.047Z,5.60
2017-12-13T17:20:09.940Z,6.00
2017-12-13T17:22:36.832Z,5.30
2017-12-13T17:25:04.001Z,5.40
2017-12-13T17:27:30.827Z,5.53
2017-12-13T17:29:57.709Z,5.55
2017-12-13T17:32:24.910Z,5.50
2017-12-13T17:34:51.996Z,5.65
2017-12-13T17:37:19.593Z,4.90
2017-12-13T17:39:46.685Z,6.50
2017-12-13T17:42:13.919Z,5.05
2017-12-13T17:44:40.842Z,5.50
2017-12-13T17:47:07.944Z,6.10
2017-12-13T17:49:35.081Z,5.60
2017-12-13T17:52:02.142Z,4.80
2017-12-13T17:54:29.041Z,4.93
2017-12-13T17:56:56.721Z,5.15
2017-12-13T17:59:24.320Z,4.93
2017-12-13T18:01:51.212Z,4.60
2017-12-13T18:04:18.043Z,5.25
2017-12-13T18:06:45.247Z,4.90
2017-12-13T18:09:12.102Z,4.70
2017-12-13T18:11:38.961Z,4.93
2017-12-13T18:14:05.856Z,4.90
2017-12-13T18:16:32.688Z,4.45
2017-12-13T18:18:59.524Z,4.32
2017-12-13T18:21:26.401Z,4.50
2017-12-13T18:23:53.317Z,4.03
2017-12-13T18:26:20.513Z,4.00
2017-12-13T18:28:47.441Z,3.97
2017-12-13T18:31:14.312Z,3.80
2017-12-13T18:33:41.173Z,4.15
2017-12-13T18:36:08.294Z,4.10
2017-12-13T18:38:35.152Z,3.67
2017-12-13T18:41:01.983Z,3.37
2017-12-13T18:43:28.866Z,3.95
2017-12-13T18:45:55.715Z,3.70
2017-12-13T18:48:22.600Z,3.90
2017-12-13T18:50:49.476Z,6.67
2017-12-13T18:53:16.366Z,7.40
2017-12-13T18:55:43.440Z,4.00
2017-12-13T18:58:10.320Z,3.90
2017-12-13T19:00:37.497Z,4.20
2017-12-13T19:03:04.692Z,4.20
2017-12-13T19:05:31.839Z,4.20
2017-12-13T19:07:58.689Z,3.97
2017-12-13T19:10:25.523Z,3.30
2017-12-13T19:12:52.407Z,3.58
2017-12-13T19:15:19.235Z,4.07
2017-12-13T19:17:46.087Z,4.00
2017-12-13T19:20:12.990Z,3.45
2017-12-13T19:22:40.362Z,3.40
2017-12-13T19:25:07.521Z,3.20
2017-12-13T19:27:34.771Z,3.23
2017-12-13T19:30:02.030Z,3.00
2017-12-13T19:32:28.932Z,3.55
2017-12-13T19:34:55.825Z,3.10
2017-12-13T19:37:22.961Z,3.00
2017-12-13T19:39:50.086Z,2.90
2017-12-13T19:42:17.011Z,3.28
2017-12-13T19:44:43.885Z,3.15
2017-12-13T19:47:10.763Z,2.60
2017-12-13T19:49:37.710Z,2.60
2017-12-13T19:52:04.946Z,2.97
2017-12-13T19:54:31.840Z,3.00
2017-12-13T19:56:58.742Z,2.70
2017-12-13T19:59:25.610Z,2.40
2017-12-13T20:01:52.490Z,2.60
2017-12-13T20:04:19.676Z,2.70
2017-12-13T20:06:46.990Z,2.60
2017-12-13T20:09:13.882Z,2.50
2017-12-13T20:11:41.122Z,2.55
2017-12-13T20:14:07.998Z,2.92
2017-12-13T20:16:34.902Z,3.10
2017-12-13T20:19:02.161Z,2.60
2017-12-13T20:21:29.028Z,2.83
2017-12-13T20:23:56.264Z,3.10
2017-12-13T20:26:23.179Z,3.80
2017-12-13T20:28:50.349Z,3.07
2017-12-13T20:31:17.500Z,3.47
2017-12-13T20:33:44.652Z,3.30
2017-12-13T20:36:11.808Z,3.70
2017-12-13T20:38:38.708Z,3.40
2017-12-13T20:41:05.585Z,3.80
2017-12-13T20:43:32.494Z,3.80
2017-12-13T20:45:59.386Z,4.28
2017-12-13T20:48:26.633Z,3.90
2017-12-13T20:50:53.512Z,4.80
2017-12-13T20:53:20.416Z,5.60
2017-12-13T20:55:47.578Z,5.10
2017-12-13T20:58:14.478Z,5.72
2017-12-13T21:00:41.771Z,5.97
2017-12-13T21:03:08.649Z,5.20
2017-12-13T21:05:35.525Z,6.00
2017-12-13T21:08:02.409Z,6.10
2017-12-13T21:10:29.285Z,5.90
2017-12-13T21:12:56.151Z,6.25
2017-12-13T21:15:23.009Z,6.37
2017-12-13T21:17:50.190Z,6.60
2017-12-13T21:20:17.077Z,6.80
2017-12-13T21:22:43.971Z,6.55
2017-12-13T21:25:10.887Z,7.40
2017-12-13T21:27:37.745Z,5.60
2017-12-13T21:30:04.662Z,6.00
2017-12-13T21:32:31.590Z,6.10
2017-12-13T21:34:58.458Z,6.35
2017-12-13T21:37:25.304Z,5.72
2017-12-13T21:39:52.198Z,6.35
2017-12-13T21:42:19.394Z,6.60
2017-12-13T21:44:46.286Z,6.28
2017-12-13T21:47:13.178Z,6.60
2017-12-13T21:49:40.030Z,7.05
2017-12-13T21:52:06.973Z,6.82
2017-12-13T21:54:34.165Z,7.37
2017-12-13T21:57:01.269Z,7.80
2017-12-13T21:59:28.122Z,7.70
2017-12-13T22:01:55.030Z,9.00
2017-12-13T22:04:22.151Z,8.13
2017-12-13T22:06:49.304Z,7.70
2017-12-13T22:09:16.178Z,7.20
2017-12-13T22:11:43.119Z,7.55
2017-12-13T22:14:10.010Z,7.28
2017-12-13T22:16:36.901Z,7.75
2017-12-13T22:19:04.031Z,7.20
2017-12-13T22:21:31.255Z,7.78
2017-12-13T22:23:58.166Z,6.70
2017-12-13T22:26:25.293Z,6.85
2017-12-13T22:28:52.175Z,7.62
2017-12-13T22:31:19.369Z,7.07
2017-12-13T22:33:46.274Z,7.43
2017-12-13T22:36:13.434Z,7.82
2017-12-13T22:38:40.399Z,8.10
2017-12-13T22:41:07.566Z,7.35
2017-12-13T22:43:34.447Z,8.00
2017-12-13T22:46:01.579Z,7.72
2017-12-13T22:48:28.456Z,7.40
2017-12-13T22:50:55.337Z,7.47
2017-12-13T22:53:22.221Z,7.80
2017-12-13T22:55:49.091Z,7.18
2017-12-13T22:58:16.280Z,7.90
2017-12-13T23:00:49.051Z,6.90
2017-12-13T23:03:15.956Z,7.30
2017-12-13T23:05:42.879Z,7.57
2017-12-13T23:08:10.110Z,6.78
2017-12-13T23:10:37.023Z,8.10
2017-12-13T23:13:03.902Z,7.90
2017-12-13T23:15:30.814Z,7.75
2017-12-13T23:17:57.993Z,8.10
2017-12-13T23:20:24.853Z,8.18
2017-12-13T23:22:51.762Z,7.47
2017-12-13T23:25:18.648Z,7.10
2017-12-13T23:27:45.569Z,7.00
2017-12-13T23:30:12.462Z,7.00
2017-12-13T23:32:39.324Z,7.15
2017-12-13T23:35:06.512Z,6.90
2017-12-13T23:37:33.388Z,7.35
2017-12-13T23:40:00.291Z,7.28
2017-12-13T23:42:27.455Z,7.22
2017-12-13T23:44:54.706Z,6.90
2017-12-13T23:47:21.849Z,6.60
2017-12-13T23:49:48.734Z,7.03
2017-12-13T23:52:15.665Z,5.60
2017-12-13T23:54:42.521Z,6.70
2017-12-13T23:57:09.743Z,6.80
2017-12-13T23:59:36.885Z,7.30
